sensor_id;sensor_type;location;lat;lon;timestamp;P1;durP1;ratioP1;P2;durP2;ratioP2
36787;SDS011;22738;45.560;9.434;2022-12-07T00:01:31;35.05;;;17.77;;
36787;SDS011;22738;45.560;9.434;2022-12-07T00:08:14;33.85;;;15.35;;
36787;SDS011;22738;45.560;9.434;2022-12-07T00:14:55;31.92;;;14.88;;
36787;SDS011;22738;45.560;9.434;2022-12-07T00:21:36;38.05;;;16.55;;
36787;SDS011;22738;45.560;9.434;2022-12-07T00:28:17;32.63;;;14.38;;
36787;SDS011;22738;45.560;9.434;2022-12-07T00:34:58;33.17;;;13.80;;
36787;SDS011;22738;45.560;9.434;2022-12-07T00:41:40;25.40;;;13.07;;
36787;SDS011;22738;45.560;9.434;2022-12-07T00:48:21;30.88;;;12.70;;
36787;SDS011;22738;45.560;9.434;2022-12-07T00:55:04;27.53;;;13.67;;
36787;SDS011;22738;45.560;9.434;2022-12-07T01:01:45;29.95;;;13.18;;
36787;SDS011;22738;45.560;9.434;2022-12-07T01:08:27;26.38;;;13.18;;
36787;SDS011;22738;45.560;9.434;2022-12-07T01:15:09;25.20;;;13.27;;
36787;SDS011;22738;45.560;9.434;2022-12-07T01:21:50;25.15;;;12.48;;
36787;SDS011;22738;45.560;9.434;2022-12-07T01:28:32;23.35;;;12.45;;
36787;SDS011;22738;45.560;9.434;2022-12-07T01:35:13;22.50;;;11.55;;
36787;SDS011;22738;45.560;9.434;2022-12-07T01:41:54;22.27;;;11.60;;
36787;SDS011;22738;45.560;9.434;2022-12-07T01:48:39;21.15;;;10.73;;
36787;SDS011;22738;45.560;9.434;2022-12-07T01:55:22;24.05;;;11.45;;
36787;SDS011;22738;45.560;9.434;2022-12-07T02:02:05;20.13;;;10.33;;
36787;SDS011;22738;45.560;9.434;2022-12-07T02:08:53;20.65;;;10.93;;
36787;SDS011;22738;45.560;9.434;2022-12-07T02:15:40;23.20;;;10.10;;
36787;SDS011;22738;45.560;9.434;2022-12-07T02:29:45;22.50;;;11.43;;
36787;SDS011;22738;45.560;9.434;2022-12-07T02:43:30;20.80;;;10.13;;
36787;SDS011;22738;45.560;9.434;2022-12-07T02:50:20;18.33;;;9.40;;
36787;SDS011;22738;45.560;9.434;2022-12-07T03:03:44;23.73;;;10.40;;
36787;SDS011;22738;45.560;9.434;2022-12-07T03:10:48;22.63;;;11.23;;
36787;SDS011;22738;45.560;9.434;2022-12-07T03:17:45;22.33;;;11.57;;
36787;SDS011;22738;45.560;9.434;2022-12-07T03:24:29;22.00;;;11.55;;
36787;SDS011;22738;45.560;9.434;2022-12-07T03:31:33;21.10;;;11.00;;
36787;SDS011;22738;45.560;9.434;2022-12-07T03:38:22;24.33;;;11.07;;
36787;SDS011;22738;45.560;9.434;2022-12-07T03:45:14;24.77;;;11.75;;
36787;SDS011;22738;45.560;9.434;2022-12-07T03:58:53;18.77;;;8.73;;
36787;SDS011;22738;45.560;9.434;2022-12-07T04:05:34;20.30;;;10.02;;
36787;SDS011;22738;45.560;9.434;2022-12-07T04:12:16;15.18;;;8.43;;
36787;SDS011;22738;45.560;9.434;2022-12-07T04:18:57;19.10;;;9.07;;
36787;SDS011;22738;45.560;9.434;2022-12-07T04:25:38;15.15;;;8.85;;
36787;SDS011;22738;45.560;9.434;2022-12-07T04:32:19;15.07;;;8.00;;
36787;SDS011;22738;45.560;9.434;2022-12-07T04:39:00;25.80;;;9.23;;
36787;SDS011;22738;45.560;9.434;2022-12-07T04:45:49;17.97;;;8.40;;
36787;SDS011;22738;45.560;9.434;2022-12-07T04:52:31;12.32;;;7.93;;
36787;SDS011;22738;45.560;9.434;2022-12-07T04:59:12;17.65;;;8.45;;
36787;SDS011;22738;45.560;9.434;2022-12-07T05:05:55;16.50;;;8.25;;
36787;SDS011;22738;45.560;9.434;2022-12-07T05:12:36;14.43;;;8.00;;
36787;SDS011;22738;45.560;9.434;2022-12-07T05:19:17;16.67;;;7.45;;
36787;SDS011;22738;45.560;9.434;2022-12-07T05:26:00;14.60;;;7.95;;
36787;SDS011;22738;45.560;9.434;2022-12-07T05:32:41;17.13;;;7.47;;
36787;SDS011;22738;45.560;9.434;2022-12-07T05:39:22;12.90;;;7.38;;
36787;SDS011;22738;45.560;9.434;2022-12-07T05:46:03;17.95;;;7.90;;
36787;SDS011;22738;45.560;9.434;2022-12-07T05:52:44;12.88;;;7.32;;
36787;SDS011;22738;45.560;9.434;2022-12-07T05:59:25;12.57;;;7.10;;
36787;SDS011;22738;45.560;9.434;2022-12-07T06:06:08;16.80;;;6.93;;
36787;SDS011;22738;45.560;9.434;2022-12-07T06:12:49;13.93;;;6.63;;
36787;SDS011;22738;45.560;9.434;2022-12-07T06:19:30;16.77;;;7.63;;
36787;SDS011;22738;45.560;9.434;2022-12-07T06:26:11;16.38;;;8.45;;
36787;SDS011;22738;45.560;9.434;2022-12-07T06:32:52;16.40;;;7.35;;
36787;SDS011;22738;45.560;9.434;2022-12-07T06:39:33;14.55;;;7.85;;
36787;SDS011;22738;45.560;9.434;2022-12-07T06:46:15;16.85;;;7.85;;
36787;SDS011;22738;45.560;9.434;2022-12-07T06:52:56;15.63;;;7.97;;
36787;SDS011;22738;45.560;9.434;2022-12-07T06:59:37;13.57;;;6.43;;
36787;SDS011;22738;45.560;9.434;2022-12-07T07:06:19;20.80;;;8.18;;
36787;SDS011;22738;45.560;9.434;2022-12-07T07:13:00;15.60;;;8.63;;
36787;SDS011;22738;45.560;9.434;2022-12-07T07:19:41;15.80;;;8.27;;
36787;SDS011;22738;45.560;9.434;2022-12-07T07:26:22;21.73;;;11.68;;
36787;SDS011;22738;45.560;9.434;2022-12-07T07:33:03;28.45;;;11.82;;
36787;SDS011;22738;45.560;9.434;2022-12-07T07:39:45;23.77;;;12.25;;
36787;SDS011;22738;45.560;9.434;2022-12-07T07:46:26;14.95;;;8.95;;
36787;SDS011;22738;45.560;9.434;2022-12-07T07:53:07;14.23;;;8.05;;
36787;SDS011;22738;45.560;9.434;2022-12-07T07:59:49;24.63;;;12.05;;
36787;SDS011;22738;45.560;9.434;2022-12-07T08:06:30;16.52;;;8.60;;
36787;SDS011;22738;45.560;9.434;2022-12-07T08:13:11;12.40;;;6.85;;
36787;SDS011;22738;45.560;9.434;2022-12-07T08:19:52;12.77;;;6.82;;
36787;SDS011;22738;45.560;9.434;2022-12-07T08:26:33;11.88;;;7.47;;
36787;SDS011;22738;45.560;9.434;2022-12-07T08:33:14;13.48;;;7.43;;
36787;SDS011;22738;45.560;9.434;2022-12-07T08:39:56;18.33;;;10.00;;
36787;SDS011;22738;45.560;9.434;2022-12-07T08:46:38;20.92;;;11.57;;
36787;SDS011;22738;45.560;9.434;2022-12-07T08:53:26;25.17;;;14.27;;
36787;SDS011;22738;45.560;9.434;2022-12-07T09:00:07;24.67;;;14.60;;
36787;SDS011;22738;45.560;9.434;2022-12-07T09:06:49;26.23;;;15.80;;
36787;SDS011;22738;45.560;9.434;2022-12-07T09:13:31;33.05;;;20.08;;
36787;SDS011;22738;45.560;9.434;2022-12-07T09:20:12;30.80;;;17.80;;
36787;SDS011;22738;45.560;9.434;2022-12-07T09:26:53;37.92;;;20.17;;
36787;SDS011;22738;45.560;9.434;2022-12-07T09:33:34;37.58;;;20.98;;
36787;SDS011;22738;45.560;9.434;2022-12-07T09:40:16;42.92;;;21.85;;
36787;SDS011;22738;45.560;9.434;2022-12-07T09:47:00;48.90;;;21.10;;
36787;SDS011;22738;45.560;9.434;2022-12-07T09:53:42;45.00;;;21.40;;
36787;SDS011;22738;45.560;9.434;2022-12-07T10:00:24;30.77;;;17.40;;
36787;SDS011;22738;45.560;9.434;2022-12-07T10:07:06;31.52;;;16.45;;
36787;SDS011;22738;45.560;9.434;2022-12-07T10:13:48;35.25;;;17.58;;
36787;SDS011;22738;45.560;9.434;2022-12-07T10:20:33;38.45;;;18.80;;
36787;SDS011;22738;45.560;9.434;2022-12-07T10:27:19;34.83;;;18.40;;
36787;SDS011;22738;45.560;9.434;2022-12-07T10:34:02;35.17;;;19.80;;
36787;SDS011;22738;45.560;9.434;2022-12-07T10:40:43;40.28;;;20.88;;
36787;SDS011;22738;45.560;9.434;2022-12-07T10:47:28;49.05;;;23.38;;
36787;SDS011;22738;45.560;9.434;2022-12-07T11:01:21;37.63;;;20.92;;
36787;SDS011;22738;45.560;9.434;2022-12-07T11:22:14;41.50;;;21.70;;
36787;SDS011;22738;45.560;9.434;2022-12-07T11:49:54;50.67;;;24.52;;
36787;SDS011;22738;45.560;9.434;2022-12-07T11:56:43;50.60;;;26.03;;
36787;SDS011;22738;45.560;9.434;2022-12-07T12:03:30;50.00;;;25.20;;
36787;SDS011;22738;45.560;9.434;2022-12-07T12:10:19;52.45;;;26.45;;
36787;SDS011;22738;45.560;9.434;2022-12-07T12:17:16;57.47;;;27.08;;
36787;SDS011;22738;45.560;9.434;2022-12-07T12:24:02;53.50;;;25.58;;
36787;SDS011;22738;45.560;9.434;2022-12-07T12:37:47;55.95;;;26.80;;
36787;SDS011;22738;45.560;9.434;2022-12-07T12:58:28;71.90;;;31.80;;
36787;SDS011;22738;45.560;9.434;2022-12-07T13:12:01;71.40;;;31.33;;
36787;SDS011;22738;45.560;9.434;2022-12-07T13:18:45;75.65;;;32.60;;
36787;SDS011;22738;45.560;9.434;2022-12-07T13:25:29;76.53;;;33.95;;
36787;SDS011;22738;45.560;9.434;2022-12-07T13:32:22;78.10;;;33.58;;
36787;SDS011;22738;45.560;9.434;2022-12-07T13:39:18;78.30;;;35.78;;
36787;SDS011;22738;45.560;9.434;2022-12-07T13:46:03;76.93;;;34.30;;
36787;SDS011;22738;45.560;9.434;2022-12-07T13:52:49;73.95;;;33.72;;
36787;SDS011;22738;45.560;9.434;2022-12-07T13:59:30;66.50;;;30.88;;
36787;SDS011;22738;45.560;9.434;2022-12-07T14:12:57;61.22;;;28.95;;
36787;SDS011;22738;45.560;9.434;2022-12-07T14:26:27;66.60;;;29.48;;
36787;SDS011;22738;45.560;9.434;2022-12-07T14:33:08;64.05;;;29.52;;
36787;SDS011;22738;45.560;9.434;2022-12-07T14:39:50;65.57;;;29.35;;
36787;SDS011;22738;45.560;9.434;2022-12-07T14:46:31;67.57;;;29.40;;
36787;SDS011;22738;45.560;9.434;2022-12-07T14:53:13;67.25;;;29.25;;
36787;SDS011;22738;45.560;9.434;2022-12-07T14:59:56;57.80;;;28.85;;
36787;SDS011;22738;45.560;9.434;2022-12-07T15:06:37;64.60;;;29.30;;
36787;SDS011;22738;45.560;9.434;2022-12-07T15:13:19;71.38;;;33.67;;
36787;SDS011;22738;45.560;9.434;2022-12-07T15:20:19;67.00;;;31.30;;
36787;SDS011;22738;45.560;9.434;2022-12-07T15:27:00;65.40;;;30.20;;
36787;SDS011;22738;45.560;9.434;2022-12-07T15:33:41;71.47;;;33.30;;
36787;SDS011;22738;45.560;9.434;2022-12-07T15:40:23;70.63;;;33.00;;
36787;SDS011;22738;45.560;9.434;2022-12-07T15:47:04;64.72;;;31.50;;
36787;SDS011;22738;45.560;9.434;2022-12-07T15:53:46;70.22;;;33.60;;
36787;SDS011;22738;45.560;9.434;2022-12-07T16:00:27;66.75;;;29.65;;
36787;SDS011;22738;45.560;9.434;2022-12-07T16:07:08;67.45;;;29.77;;
36787;SDS011;22738;45.560;9.434;2022-12-07T16:13:52;62.85;;;30.33;;
36787;SDS011;22738;45.560;9.434;2022-12-07T16:20:33;68.68;;;31.65;;
36787;SDS011;22738;45.560;9.434;2022-12-07T16:27:14;68.15;;;31.63;;
36787;SDS011;22738;45.560;9.434;2022-12-07T16:33:56;77.93;;;35.28;;
36787;SDS011;22738;45.560;9.434;2022-12-07T16:40:38;70.32;;;30.90;;
36787;SDS011;22738;45.560;9.434;2022-12-07T16:47:19;63.03;;;29.85;;
36787;SDS011;22738;45.560;9.434;2022-12-07T16:54:00;62.75;;;30.38;;
36787;SDS011;22738;45.560;9.434;2022-12-07T17:00:42;64.88;;;30.73;;
36787;SDS011;22738;45.560;9.434;2022-12-07T17:07:24;64.63;;;30.07;;
36787;SDS011;22738;45.560;9.434;2022-12-07T17:14:05;62.03;;;27.88;;
36787;SDS011;22738;45.560;9.434;2022-12-07T17:21:05;64.10;;;29.25;;
36787;SDS011;22738;45.560;9.434;2022-12-07T17:27:49;60.88;;;28.40;;
36787;SDS011;22738;45.560;9.434;2022-12-07T17:34:31;58.80;;;27.98;;
36787;SDS011;22738;45.560;9.434;2022-12-07T17:48:18;55.28;;;25.88;;
36787;SDS011;22738;45.560;9.434;2022-12-07T17:54:59;62.55;;;26.70;;
36787;SDS011;22738;45.560;9.434;2022-12-07T18:01:40;70.30;;;29.20;;
36787;SDS011;22738;45.560;9.434;2022-12-07T18:08:22;78.55;;;30.48;;
36787;SDS011;22738;45.560;9.434;2022-12-07T18:15:03;67.43;;;29.55;;
36787;SDS011;22738;45.560;9.434;2022-12-07T18:21:44;73.57;;;27.27;;
36787;SDS011;22738;45.560;9.434;2022-12-07T18:28:26;62.00;;;28.42;;
36787;SDS011;22738;45.560;9.434;2022-12-07T18:35:08;68.18;;;28.02;;
36787;SDS011;22738;45.560;9.434;2022-12-07T18:41:49;68.53;;;27.80;;
36787;SDS011;22738;45.560;9.434;2022-12-07T18:48:30;72.85;;;27.67;;
36787;SDS011;22738;45.560;9.434;2022-12-07T18:55:12;64.43;;;27.45;;
36787;SDS011;22738;45.560;9.434;2022-12-07T19:01:53;60.70;;;28.42;;
36787;SDS011;22738;45.560;9.434;2022-12-07T19:08:34;66.72;;;28.50;;
36787;SDS011;22738;45.560;9.434;2022-12-07T19:15:17;72.60;;;33.07;;
36787;SDS011;22738;45.560;9.434;2022-12-07T19:21:58;75.93;;;31.80;;
36787;SDS011;22738;45.560;9.434;2022-12-07T19:28:40;75.72;;;32.92;;
36787;SDS011;22738;45.560;9.434;2022-12-07T19:35:21;76.03;;;31.30;;
36787;SDS011;22738;45.560;9.434;2022-12-07T19:42:02;66.95;;;29.02;;
36787;SDS011;22738;45.560;9.434;2022-12-07T19:48:44;61.72;;;30.30;;
36787;SDS011;22738;45.560;9.434;2022-12-07T19:55:25;67.55;;;30.05;;
36787;SDS011;22738;45.560;9.434;2022-12-07T20:02:08;66.55;;;29.33;;
36787;SDS011;22738;45.560;9.434;2022-12-07T20:08:51;68.47;;;29.73;;
36787;SDS011;22738;45.560;9.434;2022-12-07T20:15:35;65.88;;;29.33;;
36787;SDS011;22738;45.560;9.434;2022-12-07T20:22:17;76.70;;;31.48;;
36787;SDS011;22738;45.560;9.434;2022-12-07T20:28:58;76.95;;;31.50;;
36787;SDS011;22738;45.560;9.434;2022-12-07T20:35:40;73.78;;;30.13;;
36787;SDS011;22738;45.560;9.434;2022-12-07T20:42:21;76.40;;;31.60;;
36787;SDS011;22738;45.560;9.434;2022-12-07T20:49:17;80.35;;;32.45;;
36787;SDS011;22738;45.560;9.434;2022-12-07T20:55:58;77.85;;;31.88;;
36787;SDS011;22738;45.560;9.434;2022-12-07T21:02:39;77.15;;;32.58;;
36787;SDS011;22738;45.560;9.434;2022-12-07T21:09:21;86.53;;;34.00;;
36787;SDS011;22738;45.560;9.434;2022-12-07T21:16:07;84.60;;;33.60;;
36787;SDS011;22738;45.560;9.434;2022-12-07T21:22:50;78.82;;;31.70;;
36787;SDS011;22738;45.560;9.434;2022-12-07T21:29:31;93.20;;;33.63;;
36787;SDS011;22738;45.560;9.434;2022-12-07T21:36:13;81.28;;;32.22;;
36787;SDS011;22738;45.560;9.434;2022-12-07T21:42:56;106.82;;;36.05;;
36787;SDS011;22738;45.560;9.434;2022-12-07T21:49:37;94.35;;;35.92;;
36787;SDS011;22738;45.560;9.434;2022-12-07T21:56:22;97.63;;;37.40;;
36787;SDS011;22738;45.560;9.434;2022-12-07T22:03:05;94.78;;;37.05;;
36787;SDS011;22738;45.560;9.434;2022-12-07T22:09:46;97.70;;;35.90;;
36787;SDS011;22738;45.560;9.434;2022-12-07T22:16:27;101.07;;;36.70;;
36787;SDS011;22738;45.560;9.434;2022-12-07T22:23:09;89.32;;;35.53;;
36787;SDS011;22738;45.560;9.434;2022-12-07T22:29:50;85.90;;;33.53;;
36787;SDS011;22738;45.560;9.434;2022-12-07T22:36:31;108.47;;;36.85;;
36787;SDS011;22738;45.560;9.434;2022-12-07T22:43:12;108.30;;;37.28;;
36787;SDS011;22738;45.560;9.434;2022-12-07T22:49:53;100.25;;;36.60;;
36787;SDS011;22738;45.560;9.434;2022-12-07T22:56:36;110.10;;;38.85;;
36787;SDS011;22738;45.560;9.434;2022-12-07T23:03:17;90.35;;;35.88;;
36787;SDS011;22738;45.560;9.434;2022-12-07T23:09:59;91.35;;;36.70;;
36787;SDS011;22738;45.560;9.434;2022-12-07T23:16:40;98.95;;;36.78;;
36787;SDS011;22738;45.560;9.434;2022-12-07T23:23:22;104.88;;;37.40;;
36787;SDS011;22738;45.560;9.434;2022-12-07T23:30:03;82.78;;;35.70;;
36787;SDS011;22738;45.560;9.434;2022-12-07T23:36:45;98.60;;;37.47;;
36787;SDS011;22738;45.560;9.434;2022-12-07T23:43:27;113.28;;;37.85;;
36787;SDS011;22738;45.560;9.434;2022-12-07T23:50:08;103.88;;;38.92;;
36787;SDS011;22738;45.560;9.434;2022-12-07T23:56:49;113.70;;;38.38;;
